Big Bear Station Historical Data
Daily Summary for January 16, 2019 Units:  English    Metric   Both
Next Day »
Daily Weekly Monthly Yearly Custom
  High: Low: Average:
Temperature: 41.5 °F 32.9 °F 37.7 °F
Dew Point: 39.1 °F 32.4 °F 36.6 °F
Humidity: 99% 84% 96%
Wind Speed: 10.4mph 0.0mph 2mph
Wind Gust: -999.0mph - -
Wind- - SW
Pressure: 23.58 in 23.48 in -
Precipitation: 2.71 in    
Historical Graphs
 
 
Tabular Data for January 16, 2019
Time Temperature Dew Point Pressure Wind Wind Speed Wind Gust Humidity Rainfall Rate (Hourly)
00:08 32.9 °F 32.4 °F 23.49 in Calm   -999.0 mph 98% 0.00 in
00:24 33.4 °F 32.9 °F 23.48 in Calm   -999.0 mph 98% 0.00 in
00:39 33.6 °F 33.1 °F 23.48 in Calm   -999.0 mph 98% 0.00 in
00:54 34.0 °F 33.5 °F 23.48 in Calm   -999.0 mph 98% 0.00 in
01:09 34.5 °F 34.0 °F 23.48 in Calm   -999.0 mph 98% 0.00 in
01:24 34.5 °F 34.0 °F 23.48 in Calm   -999.0 mph 98% 0.00 in
01:40 34.5 °F 34.0 °F 23.50 in Calm   -999.0 mph 98% 0.00 in
01:55 34.3 °F 33.8 °F 23.50 in Calm   -999.0 mph 98% 0.00 in
02:10 34.5 °F 34.0 °F 23.50 in Calm   -999.0 mph 98% 0.00 in
02:25 34.7 °F 34.4 °F 23.50 in Calm   -999.0 mph 99% 0.00 in
02:40 34.7 °F 34.4 °F 23.50 in Calm   -999.0 mph 99% 0.00 in
03:11 35.4 °F 35.1 °F 23.50 in Calm   -999.0 mph 99% 0.00 in
03:26 35.4 °F 35.1 °F 23.50 in Calm   -999.0 mph 99% 0.00 in
03:41 35.8 °F 35.5 °F 23.49 in WNW 1.7 mph -999.0 mph 99% 0.00 in
03:57 36.0 °F 35.7 °F 23.49 in NW 2.2 mph -999.0 mph 99% 0.00 in
04:12 36.0 °F 35.7 °F 23.49 in SW 6.8 mph -999.0 mph 99% 0.00 in
04:27 35.8 °F 35.5 °F 23.48 in SW 2.7 mph -999.0 mph 99% 0.00 in
04:42 35.8 °F 35.5 °F 23.49 in ESE 1.7 mph -999.0 mph 99% 0.00 in
04:57 36.0 °F 35.7 °F 23.49 in Calm   -999.0 mph 99% 0.00 in
05:13 36.1 °F 35.8 °F 23.49 in SW 2.7 mph -999.0 mph 99% 0.00 in
05:28 36.1 °F 35.8 °F 23.48 in East 3.2 mph -999.0 mph 99% 0.00 in
05:43 35.8 °F 35.5 °F 23.49 in West 2.7 mph -999.0 mph 99% 0.00 in
05:58 35.8 °F 35.5 °F 23.49 in SSW 2.7 mph -999.0 mph 99% 0.00 in
06:13 35.8 °F 35.5 °F 23.50 in NNW 1.1 mph -999.0 mph 99% 0.00 in
06:29 35.6 °F 35.3 °F 23.50 in Calm   -999.0 mph 99% 0.00 in
06:44 35.4 °F 35.1 °F 23.50 in WNW 2.2 mph -999.0 mph 99% 0.00 in
06:59 34.9 °F 34.6 °F 23.50 in WNW 8.9 mph -999.0 mph 99% 0.00 in
07:14 34.7 °F 34.4 °F 23.51 in WNW 2.2 mph -999.0 mph 99% 0.00 in
07:29 34.5 °F 34.2 °F 23.52 in Calm   -999.0 mph 99% 0.00 in
07:45 34.9 °F 34.6 °F 23.52 in SSW 3.2 mph -999.0 mph 99% 0.00 in
08:00 35.6 °F 35.1 °F 23.53 in West 5.3 mph -999.0 mph 98% 0.00 in
08:15 35.8 °F 35.3 °F 23.53 in Calm   -999.0 mph 98% 0.00 in
08:30 37.0 °F 36.5 °F 23.53 in NW 1.1 mph -999.0 mph 98% 0.00 in
08:45 38.1 °F 37.3 °F 23.54 in WSW 1.1 mph -999.0 mph 97% 0.00 in
09:01 38.5 °F 37.5 °F 23.54 in Calm   -999.0 mph 96% 0.00 in
09:16 39.4 °F 38.4 °F 23.55 in Calm   -999.0 mph 96% 0.00 in
09:31 39.6 °F 38.3 °F 23.56 in NW 2.2 mph -999.0 mph 95% 0.00 in
09:46 40.1 °F 38.5 °F 23.57 in SW 2.7 mph -999.0 mph 94% 0.00 in
10:02 39.2 °F 37.6 °F 23.58 in ENE 5.3 mph -999.0 mph 94% 0.00 in
10:17 39.0 °F 37.1 °F 23.58 in NNE 3.7 mph -999.0 mph 93% 0.00 in
10:33 39.2 °F 37.3 °F 23.58 in NW 3.2 mph -999.0 mph 93% 0.00 in
10:48 38.3 °F 35.9 °F 23.58 in WNW 3.7 mph -999.0 mph 91% 0.00 in
11:03 38.8 °F 36.1 °F 23.58 in SSW 2.2 mph -999.0 mph 90% 0.00 in
11:18 39.7 °F 35.3 °F 23.57 in NNW 3.7 mph -999.0 mph 84% 0.00 in
11:33 40.5 °F 36.3 °F 23.57 in NW 2.2 mph -999.0 mph 85% 0.00 in
11:49 40.5 °F 36.6 °F 23.57 in SW 2.7 mph -999.0 mph 86% 0.00 in
12:04 41.4 °F 37.8 °F 23.57 in Calm   -999.0 mph 87% 0.00 in
12:20 40.1 °F 37.7 °F 23.56 in Calm   -999.0 mph 91% 0.00 in
12:35 41.4 °F 38.1 °F 23.54 in NNW 2.7 mph -999.0 mph 88% 0.00 in
12:50 40.3 °F 37.9 °F 23.54 in Calm   -999.0 mph 91% 0.00 in
13:06 41.5 °F 39.1 °F 23.54 in Calm   -999.0 mph 91% 0.00 in
13:22 41.0 °F 38.3 °F 23.55 in NNW 1.7 mph -999.0 mph 90% 0.00 in
13:37 40.8 °F 38.1 °F 23.55 in WNW 2.2 mph -999.0 mph 90% 0.00 in
13:52 40.6 °F 38.2 °F 23.55 in SW 2.2 mph -999.0 mph 91% 0.00 in
14:08 40.8 °F 38.4 °F 23.55 in Calm   -999.0 mph 91% 0.00 in
14:23 40.6 °F 38.2 °F 23.54 in WSW 2.2 mph -999.0 mph 91% 0.00 in
14:38 39.9 °F 37.2 °F 23.55 in Calm   -999.0 mph 90% 0.00 in
14:53 39.4 °F 37.3 °F 23.55 in East 1.7 mph -999.0 mph 92% 0.00 in
15:08 39.6 °F 37.5 °F 23.55 in SSW 1.7 mph -999.0 mph 92% 0.00 in
15:24 39.0 °F 37.1 °F 23.55 in WSW 2.2 mph -999.0 mph 93% 0.00 in
15:39 38.8 °F 37.0 °F 23.55 in Calm   -999.0 mph 93% 0.00 in
15:54 38.8 °F 37.0 °F 23.55 in West 1.1 mph -999.0 mph 93% 0.00 in
16:09 38.3 °F 37.0 °F 23.54 in Calm   -999.0 mph 95% 0.00 in
16:25 38.3 °F 37.3 °F 23.55 in NE 4.7 mph -999.0 mph 96% 0.00 in
16:40 37.8 °F 36.8 °F 23.55 in SSE 4.7 mph -999.0 mph 96% 0.00 in
16:55 37.2 °F 36.2 °F 23.55 in Calm   -999.0 mph 96% 0.00 in
17:10 37.2 °F 36.2 °F 23.55 in Calm   -999.0 mph 96% 0.00 in
17:25 36.9 °F 35.9 °F 23.55 in South 2.2 mph -999.0 mph 96% 0.00 in
17:41 36.9 °F 35.9 °F 23.55 in Calm   -999.0 mph 96% 0.00 in
17:56 36.7 °F 35.7 °F 23.55 in Calm   -999.0 mph 96% 0.00 in
18:11 37.0 °F 36.2 °F 23.55 in Calm   -999.0 mph 97% 0.00 in
18:26 37.4 °F 36.9 °F 23.55 in SSE 2.7 mph -999.0 mph 98% 0.00 in
18:41 37.8 °F 37.5 °F 23.55 in South 2.7 mph -999.0 mph 99% 0.00 in
18:57 38.1 °F 37.8 °F 23.55 in Calm   -999.0 mph 99% 0.00 in
19:12 38.5 °F 38.2 °F 23.55 in South 3.7 mph -999.0 mph 99% 0.00 in
19:27 38.5 °F 38.2 °F 23.55 in NNW 5.8 mph -999.0 mph 99% 0.00 in
19:43 38.7 °F 38.4 °F 23.54 in SW 4.2 mph -999.0 mph 99% 0.00 in
19:58 38.7 °F 38.4 °F 23.54 in West 2.7 mph -999.0 mph 99% 0.00 in
20:13 38.7 °F 38.4 °F 23.55 in WSW 3.7 mph -999.0 mph 99% 0.00 in
20:28 38.5 °F 38.0 °F 23.56 in North 2.2 mph -999.0 mph 98% 0.00 in
20:43 38.8 °F 38.0 °F 23.55 in Calm   -999.0 mph 97% 0.00 in
20:59 38.3 °F 37.5 °F 23.56 in ESE 1.7 mph -999.0 mph 97% 0.00 in
21:14 38.8 °F 38.3 °F 23.56 in Calm   -999.0 mph 98% 0.00 in
21:29 39.0 °F 38.5 °F 23.56 in Calm   -999.0 mph 98% 0.00 in
21:44 38.8 °F 38.3 °F 23.56 in WNW 3.7 mph -999.0 mph 98% 0.00 in
21:59 39.4 °F 38.9 °F 23.56 in South 8.3 mph -999.0 mph 98% 0.00 in
22:15 39.2 °F 38.7 °F 23.54 in SW 10.4 mph -999.0 mph 98% 0.00 in
22:30 38.8 °F 38.3 °F 23.55 in ESE 4.7 mph -999.0 mph 98% 0.00 in
22:46 39.0 °F 38.5 °F 23.56 in SE 3.7 mph -999.0 mph 98% 0.00 in
23:01 39.2 °F 38.7 °F 23.55 in SW 3.2 mph -999.0 mph 98% 0.00 in
23:16 39.2 °F 38.7 °F 23.55 in East 1.7 mph -999.0 mph 98% 0.00 in
23:32 39.4 °F 39.1 °F 23.55 in SW 3.7 mph -999.0 mph 99% 0.00 in
23:47 39.4 °F 39.1 °F 23.54 in South 4.2 mph -999.0 mph 99% 0.00 in
Big Bear CA Weather